Time;durP1;ratioP1;P1;durP2;ratioP2;P2;SDS_P1;SDS_P2;PMS_P1;PMS_P2;Temp;Humidity;BMP_temperature;BMP_pressure;BME280_temperature;BME280_humidity;BME280_pressure;Samples;Min_cycle;Max_cycle;Signal;HPM_P1;HPM_P2
2023/08/29 00:06:28;;;;;;;12.10;5.07;;;;;;;28.22;47.52;98958.59;41578461;28;20053;-80
2023/08/29 00:26:29;;;;;;;11.32;5.50;;;;;;;26.50;51.88;98956.13;41544082;28;20107;-75
2023/08/29 00:46:30;;;;;;;10.13;5.88;;;;;;;26.40;53.63;98990.13;41541617;28;20117;-72
2023/08/29 01:06:31;;;;;;;9.88;5.60;;;;;;;26.16;54.13;99037.22;41542396;28;20091;-73
2023/08/29 01:26:32;;;;;;;11.45;6.38;;;;;;;25.94;54.07;99055.66;41544176;28;20421;-72
2023/08/29 01:46:34;;;;;;;10.80;6.05;;;;;;;25.86;54.40;99011.47;41569021;28;20140;-75
2023/08/29 02:06:36;;;;;;;8.93;5.68;;;;;;;25.78;53.89;98976.28;41583813;28;20050;-76
2023/08/29 02:26:36;;;;;;;13.02;5.88;;;;;;;25.29;55.66;98981.06;41559109;28;20041;-75
2023/08/29 02:46:37;;;;;;;8.70;5.32;;;;;;;25.55;55.04;98970.06;41496207;28;20046;-75
2023/08/29 03:06:37;;;;;;;9.65;5.78;;;;;;;25.63;54.38;98947.94;41521763;28;20051;-75
2023/08/29 03:26:37;;;;;;;9.90;5.72;;;;;;;25.46;54.54;98951.78;41547182;28;20092;-79
2023/08/29 03:46:38;;;;;;;9.73;6.18;;;;;;;25.97;53.06;98940.44;41578964;28;20105;-75
2023/08/29 04:06:38;;;;;;;7.05;5.10;;;;;;;25.26;54.39;98926.59;41595002;28;20056;-74
2023/08/29 04:26:39;;;;;;;12.52;5.32;;;;;;;25.09;55.08;98951.63;41591642;28;20118;-77
2023/08/29 04:46:40;;;;;;;11.05;5.68;;;;;;;25.34;55.22;98989.31;41592860;28;20099;-74
2023/08/29 05:06:40;;;;;;;11.10;5.68;;;;;;;24.91;56.24;98989.00;41579452;28;20049;-77
2023/08/29 05:26:40;;;;;;;10.40;6.25;;;;;;;24.91;56.26;98997.78;41580514;28;20172;-80
2023/08/29 05:46:41;;;;;;;15.23;6.05;;;;;;;25.38;56.18;99008.34;41606557;28;20049;-77
2023/08/29 06:06:43;;;;;;;12.25;5.63;;;;;;;25.61;54.87;98978.28;41601757;28;20120;-78
2023/08/29 06:26:43;;;;;;;13.65;6.40;;;;;;;25.63;55.43;98995.66;41593769;28;20042;-76
2023/08/29 06:46:44;;;;;;;13.88;6.40;;;;;;;25.28;56.55;99003.28;41637676;28;20068;-81
2023/08/29 07:06:44;;;;;;;12.02;5.80;;;;;;;25.66;55.92;99172.91;41638044;28;20045;-76
2023/08/29 07:26:45;;;;;;;10.40;5.50;;;;;;;25.72;53.96;99140.38;41623887;28;20111;-78
2023/08/29 07:46:46;;;;;;;11.05;5.47;;;;;;;25.60;55.64;99074.72;41618725;28;20132;-81
2023/08/29 08:06:47;;;;;;;11.77;5.70;;;;;;;25.02;59.78;99117.53;41650218;28;20034;-79
2023/08/29 08:26:47;;;;;;;11.98;5.88;;;;;;;24.91;61.53;99135.47;41670681;28;20046;-79
2023/08/29 08:46:48;;;;;;;12.80;6.82;;;;;;;24.59;60.55;99263.44;41671510;28;20041;-84
2023/08/29 09:06:49;;;;;;;15.93;6.72;;;;;;;24.77;59.74;99228.84;41687551;28;20055;-83
2023/08/29 09:26:50;;;;;;;14.10;5.50;;;;;;;24.89;58.21;99142.75;41674518;28;20045;-80
2023/08/29 09:46:50;;;;;;;10.98;5.03;;;;;;;24.23;58.63;99065.44;41695802;28;20060;-80
2023/08/29 10:06:52;;;;;;;7.80;5.00;;;;;;;25.00;58.13;99090.38;41670765;28;20053;-86
2023/08/29 10:26:54;;;;;;;8.73;5.25;;;;;;;23.92;60.88;99053.78;41697785;28;20099;-77
2023/08/29 10:47:26;;;;;;;10.80;5.85;;;;;;;24.64;60.98;99114.72;41651590;28;20071;-79
2023/08/29 11:07:30;;;;;;;12.45;6.90;;;;;;;25.61;58.83;99071.06;41635149;28;20060;-75
2023/08/29 11:27:38;;;;;;;12.48;8.18;;;;;;;26.68;59.64;98999.03;41654538;28;20042;-77
2023/08/29 11:47:38;;;;;;;10.65;5.35;;;;;;;26.86;55.77;99004.94;41683342;28;20046;-77
2023/08/29 12:07:41;;;;;;;7.18;4.00;;;;;;;27.24;53.82;99039.19;41661903;28;20046;-75
2023/08/29 12:27:46;;;;;;;5.55;3.70;;;;;;;27.46;52.48;99050.63;41655566;28;20051;-75
2023/08/29 12:47:47;;;;;;;8.40;4.05;;;;;;;27.58;51.15;99057.06;41654224;28;20054;-76
2023/08/29 13:07:49;;;;;;;7.13;4.20;;;;;;;27.51;49.98;99052.72;41657554;28;20037;-75
2023/08/29 13:27:50;;;;;;;8.15;4.30;;;;;;;27.54;50.32;99062.94;41660069;28;20516;-76
2023/08/29 13:47:50;;;;;;;6.20;4.45;;;;;;;27.21;50.13;99008.50;41630629;28;20189;-76
2023/08/29 14:07:51;;;;;;;7.30;4.53;;;;;;;27.62;50.26;99030.91;41653953;28;20045;-76
2023/08/29 14:27:56;;;;;;;6.60;4.50;;;;;;;27.56;50.90;98992.66;41630733;28;20052;-78
2023/08/29 14:47:56;;;;;;;8.90;4.28;;;;;;;27.71;50.00;99004.97;41595496;28;20049;-76
2023/08/29 15:07:57;;;;;;;9.27;4.60;;;;;;;27.71;49.96;99000.50;41626066;28;20080;-76
2023/08/29 15:28:09;;;;;;;8.20;4.85;;;;;;;27.28;52.08;98972.19;41586811;28;20109;-74
2023/08/29 15:48:10;;;;;;;12.48;5.28;;;;;;;26.91;50.78;98909.56;41577646;28;20042;-70
2023/08/29 16:08:11;;;;;;;9.60;4.68;;;;;;;27.01;50.60;98931.28;41632406;28;20105;-77
2023/08/29 16:28:14;;;;;;;8.40;4.78;;;;;;;25.97;53.01;98917.38;41593300;28;20048;-72
2023/08/29 16:48:15;;;;;;;;;;;;;;;25.72;53.43;98927.50;41570033;28;20068;-76
2023/08/29 17:08:15;;;;;;;11.53;5.23;;;;;;;25.26;54.76;98920.50;41599241;28;20261;-77
2023/08/29 17:28:19;;;;;;;11.05;6.15;;;;;;;25.49;55.61;98980.59;41509497;28;20794;-76
2023/08/29 17:48:21;;;;;;;8.73;4.85;;;;;;;25.20;56.76;98971.56;41544706;28;20041;-73
2023/08/29 18:08:27;;;;;;;9.15;5.13;;;;;;;25.33;56.69;98992.97;41563660;28;20069;-76
2023/08/29 18:28:30;;;;;;;10.75;5.65;;;;;;;24.86;57.27;99031.88;41583435;28;20068;-75
2023/08/29 18:48:32;;;;;;;9.60;5.60;;;;;;;24.92;56.65;99028.53;41558980;28;20382;-76
2023/08/29 19:08:36;;;;;;;12.95;5.78;;;;;;;24.44;57.98;99113.31;41471287;28;20053;-76
2023/08/29 19:28:36;;;;;;;10.43;5.88;;;;;;;23.84;59.22;99090.81;41557801;28;20037;-75
2023/08/29 19:48:39;;;;;;;8.63;3.95;;;;;;;23.52;58.53;99142.66;41578304;28;20037;-75
2023/08/29 20:08:40;;;;;;;2.50;1.40;;;;;;;23.37;52.62;99139.03;41554815;28;20049;-75
2023/08/29 20:28:41;;;;;;;1.75;1.08;;;;;;;22.45;52.37;99147.63;41551423;28;20058;-75
2023/08/29 20:48:49;;;;;;;1.30;1.10;;;;;;;23.07;52.42;99144.75;41602928;28;20055;-76
2023/08/29 21:08:56;;;;;;;2.40;1.30;;;;;;;23.71;51.76;99132.78;41537317;28;20171;-78
2023/08/29 21:28:59;;;;;;;1.73;1.00;;;;;;;24.88;51.12;99109.31;41615628;28;20129;-76
2023/08/29 21:48:59;;;;;;;1.00;0.80;;;;;;;24.95;51.32;99098.88;41619809;28;20071;-76
2023/08/29 22:09:00;;;;;;;2.72;0.85;;;;;;;25.10;51.57;99077.75;41615606;28;20079;-77
2023/08/29 22:29:06;;;;;;;2.63;0.82;;;;;;;24.89;51.29;99067.78;41600404;28;20037;-76
2023/08/29 22:49:07;;;;;;;1.52;0.60;;;;;;;24.91;51.42;99082.50;41548074;28;20042;-76
2023/08/29 23:09:09;;;;;;;4.90;0.75;;;;;;;25.02;51.79;99091.84;41600234;28;20049;-75
2023/08/29 23:29:11;;;;;;;2.25;0.60;;;;;;;24.96;51.67;99084.63;41616651;28;20120;-76
2023/08/29 23:49:13;;;;;;;1.00;0.73;;;;;;;24.32;52.37;99071.53;41610935;28;20049;-76
